地図

経路データ

SID SEASON NUMBER BASIN SUBBASIN NAME ISO_TIME NATURE LAT LON WMO_WIND WMO_PRES WMO_AGENCY TRACK_TYPE DIST2LAND LANDFALL IFLAG USA_AGENCY USA_ATCF_ID USA_LAT USA_LON USA_RECORD USA_STATUS USA_WIND USA_PRES USA_SSHS USA_R34_NE USA_R34_SE USA_R34_SW USA_R34_NW USA_R50_NE USA_R50_SE USA_R50_SW USA_R50_NW USA_R64_NE USA_R64_SE USA_R64_SW USA_R64_NW USA_POCI USA_ROCI USA_RMW USA_EYE TOKYO_LAT TOKYO_LON TOKYO_GRADE TOKYO_WIND TOKYO_PRES TOKYO_R50_DIR TOKYO_R50_LONG TOKYO_R50_SHORT TOKYO_R30_DIR TOKYO_R30_LONG TOKYO_R30_SHORT TOKYO_LAND CMA_LAT CMA_LON CMA_CAT CMA_WIND CMA_PRES HKO_LAT HKO_LON HKO_CAT HKO_WIND HKO_PRES NEWDELHI_LAT NEWDELHI_LON NEWDELHI_GRADE NEWDELHI_WIND NEWDELHI_PRES NEWDELHI_CI NEWDELHI_DP NEWDELHI_POCI REUNION_LAT REUNION_LON REUNION_TYPE REUNION_WIND REUNION_PRES REUNION_TNUM REUNION_CI REUNION_RMW REUNION_R34_NE REUNION_R34_SE REUNION_R34_SW REUNION_R34_NW REUNION_R50_NE REUNION_R50_SE REUNION_R50_SW REUNION_R50_NW REUNION_R64_NE REUNION_R64_SE REUNION_R64_SW REUNION_R64_NW BOM_LAT BOM_LON BOM_TYPE BOM_WIND BOM_PRES BOM_TNUM BOM_CI BOM_RMW BOM_R34_NE BOM_R34_SE BOM_R34_SW BOM_R34_NW BOM_R50_NE BOM_R50_SE BOM_R50_SW BOM_R50_NW BOM_R64_NE BOM_R64_SE BOM_R64_SW BOM_R64_NW BOM_ROCI BOM_POCI BOM_EYE BOM_POS_METHOD BOM_PRES_METHOD NADI_LAT NADI_LON NADI_CAT NADI_WIND NADI_PRES WELLINGTON_LAT WELLINGTON_LON WELLINGTON_WIND WELLINGTON_PRES DS824_LAT DS824_LON DS824_STAGE DS824_WIND DS824_PRES TD9636_LAT TD9636_LON TD9636_STAGE TD9636_WIND TD9636_PRES TD9635_LAT TD9635_LON TD9635_WIND TD9635_PRES TD9635_ROCI NEUMANN_LAT NEUMANN_LON NEUMANN_CLASS NEUMANN_WIND NEUMANN_PRES MLC_LAT MLC_LON MLC_CLASS MLC_WIND MLC_PRES USA_GUST BOM_GUST BOM_GUST_PER REUNION_GUST REUNION_GUST_PER USA_SEAHGT USA_SEARAD_NE USA_SEARAD_SE USA_SEARAD_SW USA_SEARAD_NW STORM_SPEED STORM_DIR
1964085S13129 1964 23 SI WA NOT_NAMED 1964-03-24 23:00:00 NR -12.6000 128.900 main 137 137 __________O___ -1 -12.6000 128.900 1 9 268
1964085S13129 1964 23 SI WA NOT_NAMED 1964-03-24 23:30:00 NR -12.6022 128.823 main 147 147 __________P___ -1 -12.6022 128.823 1 8 269
1964085S13129 1964 23 SI WA NOT_NAMED 1964-03-25 00:00:00 TS -12.6033 128.760 main 147 147 _________OP___ -1 -12.6000 128.800 TC -12.6044 128.746 1 9 269
1964085S13129 1964 23 SI WA NOT_NAMED 1964-03-25 03:00:00 TS -12.6103 128.307 main 184 159 _________PP___ -1 -12.6002 128.333 TC -12.6154 128.294 1 9 269
1964085S13129 1964 23 SI WA NOT_NAMED 1964-03-25 06:00:00 TS -12.6112 127.884 main 159 141 _________OP___ -1 -12.6000 127.900 TC -12.6196 127.872 1 8 270
1964085S13129 1964 23 SI WA NOT_NAMED 1964-03-25 09:00:00 TS -12.6063 127.516 main 141 136 _________PP___ -1 -12.5999 127.528 TC -12.6128 127.504 1 7 271
1964085S13129 1964 23 SI WA NOT_NAMED 1964-03-25 11:00:00 TS -12.6000 127.303 main 136 134 _________PO___ -1 -12.6000 127.306 TC -12.6000 127.300 1 6 272
1964085S13129 1964 23 SI WA NOT_NAMED 1964-03-25 12:00:00 TS -12.5954 127.206 main 134 134 _________OP___ -1 -12.6000 127.200 TC -12.5909 127.212 1 5 273
1964085S13129 1964 23 SI WA NOT_NAMED 1964-03-25 15:00:00 TS -12.5799 126.943 main 134 134 _________PP___ -1 -12.5999 126.908 TC -12.5599 126.978 1 5 273
1964085S13129 1964 23 SI WA NOT_NAMED 1964-03-25 18:00:00 TS -12.5708 126.660 main 136 136 _________OP___ -1 -12.6000 126.600 TC -12.5416 126.720 1 6 271
1964085S13129 1964 23 SI WA NOT_NAMED 1964-03-25 21:00:00 TS -12.5677 126.324 main 149 149 _________PP___ -1 -12.5770 126.297 TC -12.5584 126.351 1 8 268
1964085S13129 1964 23 SI WA NOT_NAMED 1964-03-25 23:00:00 TS -12.5913 126.001 main 157 157 _________PO___ -1 -12.5825 126.001 TC -12.6000 126.000 2 11 265
1964085S13129 1964 23 SI WA NOT_NAMED 1964-03-26 00:00:00 TS -12.6135 125.780 main 160 160 _________OP___ -1 -12.6000 125.800 TC -12.6269 125.760 2 14 264
1964085S13129 1964 23 SI WA NOT_NAMED 1964-03-26 01:00:00 TS -12.6437 125.521 main 169 164 _________PP___ -1 -12.6278 125.549 TC -12.6597 125.494 2 17 262
1964085S13129 1964 23 SI WA NOT_NAMED 1964-03-26 03:00:00 TS -12.7276 124.919 main 194 188 _________PP___ -1 -12.7128 124.940 TC -12.7423 124.898 2 19 261
1964085S13129 1964 23 SI WA NOT_NAMED 1964-03-26 06:00:00 TS -12.9044 123.900 main 236 236 _________OP___ -1 -12.9000 123.900 TC -12.9089 123.900 2 20 259
1964085S13129 1964 23 SI WA NOT_NAMED 1964-03-26 09:00:00 TS -13.1193 122.878 main 299 299 _________PP___ -1 -13.1124 122.892 TC -13.1262 122.864 2 20 257
1964085S13129 1964 23 SI WA NOT_NAMED 1964-03-26 11:00:00 TS -13.2971 122.212 main 349 349 _________PO___ -1 -13.2942 122.224 TC -13.3000 122.200 1 20 254
1964085S13129 1964 23 SI WA NOT_NAMED 1964-03-26 12:00:00 TS -13.4014 121.896 main 363 357 _________OP___ -1 -13.4000 121.900 TC -13.4029 121.892 1 20 249
1964085S13129 1964 23 SI WA NOT_NAMED 1964-03-26 15:00:00 TS -13.7736 120.965 main 364 364 _________PP___ -1 -13.7924 120.940 TC -13.7547 120.990 1 19 246
1964085S13129 1964 23 SI WA NOT_NAMED 1964-03-26 18:00:00 TS -14.1671 120.126 main 394 394 _________OP___ -1 -14.2000 120.100 TC -14.1343 120.153 1 17 244
1964085S13129 1964 23 SI WA NOT_NAMED 1964-03-26 21:00:00 TS -14.5194 119.417 main 425 425 _________PP___ -1 -14.5447 119.417 TC -14.4942 119.416 1 14 243
1964085S13129 1964 23 SI WA NOT_NAMED 1964-03-26 23:00:00 TS -14.7140 119.028 main 443 443 _________PO___ -1 -14.7280 119.056 TC -14.7000 119.000 1 12 244
1964085S13129 1964 23 SI WA NOT_NAMED 1964-03-27 00:00:00 TS -14.7868 118.862 main 445 445 _________OP___ -1 -14.8000 118.900 TC -14.7736 118.825 1 10 247
1964085S13129 1964 23 SI WA NOT_NAMED 1964-03-27 01:00:00 TS -14.8449 118.711 main 463 456 _________PP___ -1 -14.8508 118.755 TC -14.8391 118.668 1 8 250
1964085S13129 1964 23 SI WA NOT_NAMED 1964-03-27 03:00:00 TS -14.9325 118.456 main 475 475 _________PP___ -1 -14.9147 118.512 TC -14.9503 118.400 1 7 250
1964085S13129 1964 23 SI WA NOT_NAMED 1964-03-27 06:00:00 TS -15.0425 118.139 main 506 501 _________OP___ -1 -15.0000 118.200 TC -15.0850 118.078 1 7 246
1964085S13129 1964 23 SI WA NOT_NAMED 1964-03-27 09:00:00 TS -15.1967 117.831 main 525 525 _________PP___ -1 -15.1849 117.865 TC -15.2086 117.797 1 7 242
1964085S13129 1964 23 SI WA NOT_NAMED 1964-03-27 11:00:00 TS -15.3140 117.614 main 539 539 _________PO___ -1 -15.3280 117.628 TC -15.3000 117.600 1 8 241
1964085S13129 1964 23 SI WA NOT_NAMED 1964-03-27 12:00:00 TS -15.3812 117.484 main 544 544 _________OP___ -1 -15.4000 117.500 TC -15.3625 117.467 1 9 244
1964085S13129 1964 23 SI WA NOT_NAMED 1964-03-27 15:00:00 TS -15.5810 117.053 main 546 535 _________PP___ -1 -15.6001 117.050 TC -15.5619 117.056 1 9 244
1964085S13129 1964 23 SI WA NOT_NAMED 1964-03-27 18:00:00 TS -15.7848 116.620 main 537 516 _________OP___ -1 -15.8000 116.600 TC -15.7696 116.640 1 9 242
1964085S13129 1964 23 SI WA NOT_NAMED 1964-03-27 21:00:00 TS -15.9939 116.235 main 517 507 _________PP___ -1 -16.0149 116.227 TC -15.9730 116.244 1 8 240
1964085S13129 1964 23 SI WA NOT_NAMED 1964-03-27 23:00:00 TS -16.1224 116.003 main 508 499 _________PO___ -1 -16.1447 116.006 TC -16.1000 116.000 1 8 241
1964085S13129 1964 23 SI WA NOT_NAMED 1964-03-28 00:00:00 TS -16.1758 115.894 main 499 499 _________OP___ -1 -16.2000 115.900 TC -16.1516 115.889 1 7 245
1964085S13129 1964 23 SI WA NOT_NAMED 1964-03-28 01:00:00 TS -16.2201 115.787 main 501 492 _________PP___ -1 -16.2395 115.792 TC -16.2007 115.783 1 6 248
1964085S13129 1964 23 SI WA NOT_NAMED 1964-03-28 03:00:00 TS -16.2968 115.584 main 494 489 _________PP___ -1 -16.3000 115.585 TC -16.2937 115.582 1 6 247
1964085S13129 1964 23 SI WA NOT_NAMED 1964-03-28 06:00:00 TS -16.4155 115.304 main 492 478 _________OP___ -1 -16.4000 115.300 TC -16.4310 115.309 1 6 241
1964085S13129 1964 23 SI WA NOT_NAMED 1964-03-28 09:00:00 TS -16.5798 115.054 main 478 471 _________PP___ -1 -16.5774 115.050 TC -16.5822 115.058 1 6 233
1964085S13129 1964 23 SI WA NOT_NAMED 1964-03-28 11:00:00 TS -16.7112 114.893 main 475 469 _________PO___ -1 -16.7223 114.886 TC -16.7000 114.900 1 6 229
1964085S13129 1964 23 SI WA NOT_NAMED 1964-03-28 12:00:00 TS -16.7887 114.804 main 469 459 _________OP___ -1 -16.8000 114.800 TC -16.7773 114.809 1 7 228
1964085S13129 1964 23 SI WA NOT_NAMED 1964-03-28 15:00:00 TS -17.0422 114.509 main 464 447 _________PP___ -1 -17.0501 114.478 TC -17.0344 114.541 1 7 226
1964085S13129 1964 23 SI WA NOT_NAMED 1964-03-28 18:00:00 TS -17.3024 114.249 main 453 444 _________OP___ -1 -17.3000 114.200 TC -17.3047 114.299 1 7 222
1964085S13129 1964 23 SI WA NOT_NAMED 1964-03-28 19:00:00 TS -17.3850 114.184 main 444 439 _________PP___ -1 -17.3776 114.141 TC -17.3924 114.226 1 6 214
1964085S13129 1964 23 SI WA NOT_NAMED 1964-03-28 21:00:00 TS -17.5398 114.081 main 439 425 _________PP___ -1 -17.5224 114.062 TC -17.5571 114.099 1 5 210
1964085S13129 1964 23 SI WA NOT_NAMED 1964-03-28 23:00:00 TS -17.6737 114.009 main 425 425 _________PO___ -1 -17.6473 114.017 TC -17.7000 114.000 2 4 206
1964085S13129 1964 23 SI WA NOT_NAMED 1964-03-29 00:00:00 TS -17.7273 113.982 main 425 416 _________OP___ -1 -17.7000 114.000 TC -17.7546 113.965 2 3 206
1964085S13129 1964 23 SI WA NOT_NAMED 1964-03-29 01:00:00 TS -17.7741 113.956 main 416 416 _________PP___ -1 -17.7447 113.975 TC -17.8034 113.937 2 3 206
1964085S13129 1964 23 SI WA NOT_NAMED 1964-03-29 03:00:00 TS -17.8505 113.919 main 413 413 _________PP___ -1 -17.8150 113.935 TC -17.8860 113.903 2 2 200
1964085S13129 1964 23 SI WA NOT_NAMED 1964-03-29 06:00:00 TS -17.9404 113.894 main 413 404 _________OP___ -1 -17.9000 113.900 TC -17.9808 113.888 2 2 185
1964085S13129 1964 23 SI WA NOT_NAMED 1964-03-29 09:00:00 TS -18.0311 113.898 main 404 395 _________PP___ -1 -18.0075 113.900 TC -18.0547 113.896 2 2 170
1964085S13129 1964 23 SI WA NOT_NAMED 1964-03-29 11:00:00 TS -18.0862 113.902 main 395 395 _________PO___ -1 -18.0724 113.903 TC -18.1000 113.900 2 1 0
1964085S13129 1964 23 SI WA NOT_NAMED 1964-03-29 12:00:00 TS -18.1025 113.895 main 395 395 _________OP___ -1 -18.1000 113.900 TC -18.1050 113.889 2 1 0
1964085S13129 1964 23 SI WA NOT_NAMED 1964-03-29 13:00:00 TS -18.1115 113.882 main 395 395 _________PP___ -1 -18.1171 113.886 TC -18.1059 113.878 2 1 238
1964085S13129 1964 23 SI WA NOT_NAMED 1964-03-29 15:00:00 TS -18.1236 113.853 main 395 395 _________PP___ -1 -18.1425 113.850 TC -18.1047 113.856 2 1 239
1964085S13129 1964 23 SI WA NOT_NAMED 1964-03-29 16:00:00 TS -18.1318 113.838 main 401 391 _________PP___ -1 -18.1563 113.831 TC -18.1073 113.845 2 1 222
1964085S13129 1964 23 SI WA NOT_NAMED 1964-03-29 18:00:00 TS -18.1651 113.813 main 391 382 _________OP___ -1 -18.2000 113.800 TC -18.1303 113.826 2 2 193
1964085S13129 1964 23 SI WA NOT_NAMED 1964-03-29 21:00:00 TS -18.2596 113.795 main 382 373 _________PP___ -1 -18.2750 113.785 TC -18.2442 113.805 2 3 0
1964085S13129 1964 23 SI WA NOT_NAMED 1964-03-29 23:00:00 TS -18.3995 113.796 main 373 364 _________PO___ -1 -18.3991 113.792 TC -18.4000 113.800 2 5 0
1964085S13129 1964 23 SI WA NOT_NAMED 1964-03-30 00:00:00 TS -18.5111 113.804 main 364 355 _________OP___ -1 -18.5000 113.800 TC -18.5221 113.808 2 8 176
1964085S13129 1964 23 SI WA NOT_NAMED 1964-03-30 01:00:00 TS -18.6492 113.816 main 355 321 _________PP___ -1 -18.6350 113.814 TC -18.6635 113.818 2 10 174
1964085S13129 1964 23 SI WA NOT_NAMED 1964-03-30 03:00:00 TS -18.9883 113.847 main 321 256 _________PP___ -1 -18.9825 113.850 TC -18.9941 113.844 2 11 176
1964085S13129 1964 23 SI WA NOT_NAMED 1964-03-30 06:00:00 TS -19.5868 113.892 main 256 235 _________OP___ -1 -19.6000 113.900 TC -19.5737 113.884 2 12 176
1964085S13129 1964 23 SI WA NOT_NAMED 1964-03-30 07:00:00 TS -19.7894 113.903 main 235 190 _________PP___ -1 -19.7995 113.911 TC -19.7794 113.894 2 12 0
1964085S13129 1964 23 SI WA NOT_NAMED 1964-03-30 09:00:00 TS -20.2012 113.914 main 190 145 _________PP___ -1 -20.2075 113.922 TC -20.1950 113.906 2 12 0
1964085S13129 1964 23 SI WA NOT_NAMED 1964-03-30 11:00:00 TS -20.6044 113.907 main 145 123 _________PO___ -1 -20.6088 113.914 TC -20.6000 113.900 4 12 181
1964085S13129 1964 23 SI WA NOT_NAMED 1964-03-30 12:00:00 TS -20.7879 113.894 main 123 70 _________OP___ -1 -20.8000 113.900 TC -20.7758 113.888 4 11 187
1964085S13129 1964 23 SI WA NOT_NAMED 1964-03-30 15:00:00 TS -21.3041 113.825 main 70 32 _________PP___ -1 -21.3150 113.823 TC -21.2932 113.828 4 10 190
1964085S13129 1964 23 SI WA NOT_NAMED 1964-03-30 18:00:00 TS -21.7978 113.716 main 32 20 _________OP___ -1 -21.8000 113.700 TC -21.7957 113.731 4 10 193
1964085S13129 1964 23 SI WA NOT_NAMED 1964-03-30 21:00:00 TS -22.2991 113.584 main 20 10 _________PP___ -1 -22.3150 113.565 TC -22.2832 113.602 4 10 195
1964085S13129 1964 23 SI WA NOT_NAMED 1964-03-30 23:00:00 TS -22.6224 113.479 main 10 10 _________PO___ -1 -22.6447 113.458 TC -22.6000 113.500 1 10 197
1964085S13129 1964 23 SI WA NOT_NAMED 1964-03-31 00:00:00 TS -22.7753 113.422 main 30 30 _________OP___ -1 -22.8000 113.400 TC -22.7506 113.444 1 10 200
1964085S13129 1964 23 SI WA NOT_NAMED 1964-03-31 01:00:00 TS -22.9190 113.362 main 38 38 _________PP___ -1 -22.9395 113.339 TC -22.8984 113.384 1 9 203
1964085S13129 1964 23 SI WA NOT_NAMED 1964-03-31 03:00:00 TS -23.1944 113.231 main 61 60 _________PP___ -1 -23.2000 113.207 TC -23.1888 113.254 1 9 204
1964085S13129 1964 23 SI WA NOT_NAMED 1964-03-31 06:00:00 TS -23.6118 113.022 main 60 52 _________OP___ -1 -23.6000 113.000 TC -23.6236 113.044 1 10 203
1964085S13129 1964 23 SI WA NOT_NAMED 1964-03-31 09:00:00 TS -24.0771 112.816 main 69 64 _________PP___ -1 -24.0775 112.800 TC -24.0768 112.832 1 10 201
1964085S13129 1964 23 SI WA NOT_NAMED 1964-03-31 11:00:00 TS -24.4112 112.683 main 70 70 _________PO___ -1 -24.4224 112.667 TC -24.4000 112.700 1 11 200
1964085S13129 1964 23 SI WA NOT_NAMED 1964-03-31 12:00:00 TS -24.5905 112.611 main 83 83 _________OP___ -1 -24.6000 112.600 TC -24.5810 112.622 1 12 201
1964085S13129 1964 23 SI WA NOT_NAMED 1964-03-31 15:00:00 TS -25.1446 112.383 main 120 112 _________PP___ -1 -25.1350 112.378 TC -25.1542 112.389 1 12 198
1964085S13129 1964 23 SI WA NOT_NAMED 1964-03-31 18:00:00 TS -25.7241 112.198 main 118 112 _________OP___ -1 -25.7000 112.200 TC -25.7482 112.196 1 12 193
1964085S13129 1964 23 SI WA NOT_NAMED 1964-03-31 21:00:00 TS -26.3234 112.088 main 119 119 _________PP___ -1 -26.3149 112.083 TC -26.3319 112.094 1 12 185
1964085S13129 1964 23 SI WA NOT_NAMED 1964-03-31 23:00:00 TS -26.7072 112.087 main 127 127 _________PO___ -1 -26.7144 112.075 TC -26.7000 112.100 1 11 177
1964085S13129 1964 23 SI WA NOT_NAMED 1964-04-01 00:00:00 TS -26.8864 112.117 main 136 134 _________OP___ -1 -26.9000 112.100 TC -26.8729 112.134 1 11 168
1964085S13129 1964 23 SI WA NOT_NAMED 1964-04-01 01:00:00 TS -27.0557 112.163 main 141 141 _________PP___ -1 -27.0697 112.141 TC -27.0416 112.185 1 10 161
1964085S13129 1964 23 SI WA NOT_NAMED 1964-04-01 03:00:00 TS -27.3733 112.308 main 150 141 _________PP___ -1 -27.3799 112.282 TC -27.3666 112.334 1 10 152
1964085S13129 1964 23 SI WA NOT_NAMED 1964-04-01 06:00:00 TS -27.8115 112.623 main 147 116 _________OP___ -1 -27.8000 112.600 TC -27.8229 112.647 1 11 144
1964085S13129 1964 23 SI WA NOT_NAMED 1964-04-01 09:00:00 TS -28.2321 113.003 main 116 98 _________PP___ -1 -28.2225 112.977 TC -28.2417 113.029 1 11 140
1964085S13129 1964 23 SI WA NOT_NAMED 1964-04-01 11:00:00 TS -28.4904 113.279 main 98 96 _________PO___ -1 -28.4807 113.259 TC -28.5000 113.300 1 10 137
1964085S13129 1964 23 SI WA NOT_NAMED 1964-04-01 12:00:00 TS -28.6087 113.405 main 96 78 _________OP___ -1 -28.6000 113.400 TC -28.6174 113.410 1 9 135
1964085S13129 1964 23 SI WA NOT_NAMED 1964-04-01 15:00:00 TS -28.9232 113.775 main 78 71 _________PP___ -1 -28.9073 113.793 TC -28.9392 113.756 1 9 133
1964085S13129 1964 23 SI WA NOT_NAMED 1964-04-01 16:00:00 TS -29.0217 113.903 main 71 59 _________PP___ -1 -29.0028 113.926 TC -29.0405 113.879 1 9 131
1964085S13129 1964 23 SI WA NOT_NAMED 1964-04-01 18:00:00 TS -29.2211 114.170 main 58 38 _________OP___ -1 -29.2000 114.200 TC -29.2422 114.139 1 10 130
1964085S13129 1964 23 SI WA NOT_NAMED 1964-04-01 21:00:00 TS -29.5405 114.601 main 38 9 _________PP___ -1 -29.5198 114.628 TC -29.5613 114.574 1 10 131
1964085S13129 1964 23 SI WA NOT_NAMED 1964-04-01 23:00:00 TS -29.7817 114.918 main 9 0 _________PO___ -1 -29.7634 114.936 TC -29.8000 114.900 1 11 132
1964085S13129 1964 23 SI WA NOT_NAMED 1964-04-02 00:00:00 TS -29.9178 115.084 main 0 0 _________OP___ -1 -29.9000 115.100 TC -29.9355 115.067 1 13 135
1964085S13129 1964 23 SI WA NOT_NAMED 1964-04-02 03:00:00 TS -30.3756 115.614 main 0 0 _________PP___ -1 -30.3771 115.613 TC -30.3740 115.615 1 14 134
1964085S13129 1964 23 SI WA NOT_NAMED 1964-04-02 06:00:00 TS -30.8755 116.215 main 0 0 _________OP___ -1 -30.9000 116.200 TC -30.8511 116.230 1 15 133
1964085S13129 1964 23 SI WA NOT_NAMED 1964-04-02 09:00:00 TS -31.3773 116.883 main 0 0 _________PP___ -1 -31.3996 116.856 TC -31.3550 116.910 1 16 130
1964085S13129 1964 23 SI WA NOT_NAMED 1964-04-02 11:00:00 TS -31.7165 117.371 main 0 0 _________PO___ -1 -31.7330 117.342 TC -31.7000 117.400 1 16 129
1964085S13129 1964 23 SI WA NOT_NAMED 1964-04-02 12:00:00 TS -31.8851 117.632 main 0 0 _________OP___ -1 -31.9000 117.600 TC -31.8739 117.655 1 17 127
1964085S13129 1964 23 SI WA NOT_NAMED 1964-04-02 15:00:00 TS -32.3998 118.448 main 0 0 _________PP___ -1 -32.4013 118.425 TC -32.3990 118.460 1 18 126
1964085S13129 1964 23 SI WA NOT_NAMED 1964-04-02 18:00:00 TS -32.9197 119.309 main 0 0 _________OP___ -1 -32.9000 119.300 TC -32.9263 119.312 1 18 126
1964085S13129 1964 23 SI WA NOT_NAMED 1964-04-02 21:00:00 NR -33.4520 120.197 main 0 0 __________P___ -1 TC -33.4520 120.197 1 18 125
1964085S13129 1964 23 SI WA NOT_NAMED 1964-04-02 23:00:00 NR -33.8000 120.800 main 0 __________O___ -1 TC -33.8000 120.800 1 18 125

IBTrACS Databaseについて

本データベースは、米国NOAAが公開する1842年以降の世界の熱帯低気圧のベストトラックデータアーカイブInternational Best Track Archive for Climate Stewardship (IBTrACS)を、ウェブで閲覧しやすい形式に変換したものです。

最終更新日:2021-10-08